createdAt,value
2023-03-26T00:00:55.774Z,99722.34
2023-03-26T00:03:27.789Z,99724.09
2023-03-26T00:06:03.872Z,99727.03
2023-03-26T00:08:31.929Z,99730.84
2023-03-26T00:11:01.029Z,99729.00
2023-03-26T00:13:29.078Z,99729.69
2023-03-26T00:15:57.109Z,99732.84
2023-03-26T00:18:30.603Z,99742.94
2023-03-26T00:20:59.459Z,99730.38
2023-03-26T00:23:28.421Z,99733.41
2023-03-26T00:25:57.180Z,99728.94
2023-03-26T00:28:26.314Z,99731.94
2023-03-26T00:30:59.579Z,99744.34
2023-03-26T00:33:29.291Z,99755.59
2023-03-26T00:35:58.722Z,99743.34
2023-03-26T00:38:28.316Z,99741.09
2023-03-26T00:40:56.492Z,99731.16
2023-03-26T00:43:26.440Z,99728.69
2023-03-26T00:45:55.779Z,99737.44
2023-03-26T00:48:31.610Z,99738.44
2023-03-26T00:51:12.253Z,99756.16
2023-03-26T00:53:41.247Z,99739.28
2023-03-26T00:56:10.544Z,99739.28
2023-03-26T00:58:39.045Z,99734.97
2023-03-26T01:01:09.291Z,99733.81
2023-03-26T01:03:39.343Z,99738.94
2023-03-26T01:06:09.293Z,99735.47
2023-03-26T01:08:40.235Z,99743.41
2023-03-26T01:11:13.920Z,99733.66
2023-03-26T01:13:44.026Z,99733.19
2023-03-26T01:16:20.413Z,99745.28
2023-03-26T01:18:49.460Z,99743.41
2023-03-26T01:21:22.530Z,99757.81
2023-03-26T01:23:59.698Z,99765.75
2023-03-26T01:26:39.672Z,99756.31
2023-03-26T01:29:10.107Z,99765.50
2023-03-26T01:31:44.434Z,99765.41
2023-03-26T01:34:16.027Z,99765.31
2023-03-26T01:36:50.061Z,99758.84
2023-03-26T01:39:26.102Z,99759.84
2023-03-26T01:41:58.598Z,99768.75
2023-03-26T01:44:31.157Z,99765.94
2023-03-26T01:47:00.487Z,99769.16
2023-03-26T01:49:28.940Z,99764.09
2023-03-26T01:51:57.845Z,99758.09
2023-03-26T01:54:30.369Z,99759.38
2023-03-26T01:57:04.901Z,99761.97
2023-03-26T01:59:53.633Z,99757.56
2023-03-26T02:02:28.898Z,99761.50
2023-03-26T02:05:02.597Z,99765.06
2023-03-26T02:07:37.842Z,99767.72
2023-03-26T02:10:11.352Z,99765.59
2023-03-26T02:12:41.201Z,99763.09
2023-03-26T02:15:10.493Z,99767.59
2023-03-26T02:17:40.162Z,99773.50
2023-03-26T02:20:10.643Z,99767.88
2023-03-26T02:22:40.919Z,99768.38
2023-03-26T02:25:14.051Z,99771.34
2023-03-26T02:27:42.346Z,99762.41
2023-03-26T02:30:17.073Z,99770.34
2023-03-26T02:32:47.607Z,99769.78
2023-03-26T02:35:15.616Z,99764.50
2023-03-26T02:37:46.804Z,99762.03
2023-03-26T02:40:21.205Z,99769.38
2023-03-26T02:42:50.353Z,99774.25
2023-03-26T02:45:18.408Z,99778.72
2023-03-26T02:48:18.492Z,99784.00
2023-03-26T02:50:54.254Z,99781.75
2023-03-26T02:53:39.409Z,99788.69
2023-03-26T02:56:39.110Z,99800.91
2023-03-26T02:59:29.791Z,99796.66
2023-03-26T03:02:18.243Z,99782.16
2023-03-26T03:04:47.075Z,99792.47
2023-03-26T03:07:15.886Z,99793.97
2023-03-26T03:09:44.223Z,99792.75
2023-03-26T03:12:36.814Z,99795.97
2023-03-26T03:15:05.044Z,99799.81
2023-03-26T03:17:32.948Z,99804.13
2023-03-26T03:20:00.837Z,99816.00
2023-03-26T03:22:28.704Z,99808.72
2023-03-26T03:24:57.660Z,99800.22
2023-03-26T03:27:26.047Z,99800.88
2023-03-26T03:30:11.809Z,99796.63
2023-03-26T03:32:59.946Z,99804.19
2023-03-26T03:35:29.578Z,99800.94
2023-03-26T03:38:00.355Z,99797.69
2023-03-26T03:40:30.173Z,99797.00
2023-03-26T03:42:58.208Z,99807.13
2023-03-26T03:45:37.236Z,99808.25
2023-03-26T03:48:11.333Z,99801.16
2023-03-26T03:50:42.636Z,99810.94
2023-03-26T03:53:36.951Z,99810.59
2023-03-26T03:56:10.210Z,99807.63
2023-03-26T03:59:01.043Z,99806.16
2023-03-26T04:01:35.824Z,99813.44
2023-03-26T04:04:08.653Z,99814.56
2023-03-26T04:06:59.564Z,99809.28
2023-03-26T04:09:33.179Z,99814.25
2023-03-26T04:12:05.863Z,99810.44
2023-03-26T04:14:54.006Z,99816.56
2023-03-26T04:17:24.015Z,99816.59
2023-03-26T04:19:55.756Z,99815.59
2023-03-26T04:22:34.484Z,99819.56
2023-03-26T04:25:05.212Z,99822.34
2023-03-26T04:27:39.193Z,99813.75
2023-03-26T04:30:17.209Z,99822.88
2023-03-26T04:32:47.420Z,99820.91
2023-03-26T04:35:16.393Z,99816.25
2023-03-26T04:37:48.787Z,99827.16
2023-03-26T04:40:30.556Z,99819.94
2023-03-26T04:43:26.352Z,99819.72
2023-03-26T04:45:57.133Z,99824.47
2023-03-26T04:48:30.299Z,99821.84
2023-03-26T04:50:59.224Z,99826.97
2023-03-26T04:53:27.062Z,99832.72
2023-03-26T04:56:21.088Z,99825.88
2023-03-26T04:59:14.823Z,99815.88
2023-03-26T05:01:45.713Z,99824.13
2023-03-26T05:04:16.721Z,99826.53
2023-03-26T05:06:45.270Z,99826.94
2023-03-26T05:09:28.913Z,99832.28
2023-03-26T05:12:17.720Z,99830.69
2023-03-26T05:15:00.052Z,99823.81
2023-03-26T05:17:42.975Z,99829.94
2023-03-26T05:20:21.825Z,99825.97
2023-03-26T05:22:50.289Z,99823.81
2023-03-26T05:25:24.945Z,99826.63
2023-03-26T05:27:53.171Z,99834.38
2023-03-26T05:30:22.956Z,99829.41
2023-03-26T05:32:56.637Z,99830.09
2023-03-26T05:35:30.899Z,99833.72
2023-03-26T05:37:58.892Z,99836.38
2023-03-26T05:40:27.284Z,99845.28
2023-03-26T05:42:58.349Z,99838.53
2023-03-26T05:45:35.359Z,99836.38
2023-03-26T05:48:15.967Z,99824.00
2023-03-26T05:50:45.328Z,99834.06
2023-03-26T05:53:13.348Z,99830.97
2023-03-26T05:56:00.771Z,99828.69
2023-03-26T05:58:47.479Z,99830.03
2023-03-26T06:01:33.709Z,99844.84
2023-03-26T06:04:21.987Z,99840.72
2023-03-26T06:07:11.520Z,99835.06
2023-03-26T06:09:41.439Z,99841.50
2023-03-26T06:12:10.928Z,99835.00
2023-03-26T06:14:42.398Z,99835.53
2023-03-26T06:17:20.686Z,99847.00
2023-03-26T06:20:12.272Z,99843.31
2023-03-26T06:22:44.696Z,99841.78
2023-03-26T06:25:42.059Z,99849.75
2023-03-26T06:28:16.592Z,99849.72
2023-03-26T06:30:47.265Z,99840.81
2023-03-26T06:33:24.674Z,99849.13
2023-03-26T06:35:52.915Z,99848.44
2023-03-26T06:38:22.307Z,99850.81
2023-03-26T06:40:50.286Z,99861.28
2023-03-26T06:43:27.237Z,99858.88
2023-03-26T06:46:16.437Z,99861.47
2023-03-26T06:49:02.461Z,99868.81
2023-03-26T06:51:49.121Z,99867.28
2023-03-26T06:54:28.345Z,99865.75
2023-03-26T06:57:10.242Z,99871.59
2023-03-26T07:00:04.633Z,99872.28
2023-03-26T07:02:51.353Z,99862.00
2023-03-26T07:05:37.912Z,99856.56
2023-03-26T07:08:26.323Z,99862.69
2023-03-26T07:11:14.145Z,99850.06
2023-03-26T07:13:56.211Z,99855.25
2023-03-26T07:16:45.781Z,99850.06
2023-03-26T07:19:45.791Z,99846.28
2023-03-26T07:22:16.681Z,99852.59
2023-03-26T07:25:12.681Z,99857.72
2023-03-26T07:28:08.942Z,99849.06
2023-03-26T07:31:20.905Z,99851.63
2023-03-26T07:34:29.340Z,99854.66
2023-03-26T07:37:20.192Z,99859.28
2023-03-26T07:40:19.105Z,99852.50
2023-03-26T07:43:26.936Z,99852.81
2023-03-26T07:46:14.473Z,99859.91
2023-03-26T07:48:54.958Z,99860.19
2023-03-26T07:51:42.284Z,99865.94
2023-03-26T07:54:16.949Z,99859.16
2023-03-26T07:57:33.202Z,99856.44
2023-03-26T08:00:23.558Z,99873.22
2023-03-26T08:03:42.766Z,99859.69
2023-03-26T08:06:34.796Z,99860.84
2023-03-26T08:09:22.193Z,99854.06
2023-03-26T08:12:22.807Z,99854.56
2023-03-26T08:14:55.233Z,99858.53
2023-03-26T08:17:31.267Z,99852.41
2023-03-26T08:20:09.312Z,99859.88
2023-03-26T08:22:40.997Z,99851.91
2023-03-26T08:25:19.608Z,99862.88
2023-03-26T08:27:55.798Z,99856.84
2023-03-26T08:30:25.297Z,99857.50
2023-03-26T08:32:57.439Z,99857.13
2023-03-26T08:35:25.443Z,99846.56
2023-03-26T08:37:53.734Z,99856.94
2023-03-26T08:40:39.546Z,99849.50
2023-03-26T08:43:20.365Z,99854.19
2023-03-26T08:45:56.744Z,99852.53
2023-03-26T08:49:03.793Z,99854.03
2023-03-26T08:51:59.522Z,99840.00
2023-03-26T08:55:04.138Z,99842.59
2023-03-26T08:58:07.741Z,99841.44
2023-03-26T09:00:51.986Z,99835.63
2023-03-26T09:04:14.468Z,99831.81
2023-03-26T09:07:16.112Z,99832.97
2023-03-26T09:10:18.339Z,99837.91
2023-03-26T09:13:11.807Z,99833.66
2023-03-26T09:16:09.443Z,99831.16
2023-03-26T09:18:55.706Z,99833.03
2023-03-26T09:21:34.902Z,99824.09
2023-03-26T09:24:27.498Z,99822.78
2023-03-26T09:27:01.916Z,99822.81
2023-03-26T09:30:02.488Z,99810.88
2023-03-26T09:33:09.761Z,99811.84
2023-03-26T09:35:53.609Z,99809.69
2023-03-26T09:38:40.338Z,99819.63
2023-03-26T09:41:15.395Z,99828.69
2023-03-26T09:44:11.433Z,99830.16
2023-03-26T09:46:48.009Z,99834.63
2023-03-26T09:49:34.445Z,99838.50
2023-03-26T09:52:13.325Z,99849.50
2023-03-26T09:55:03.760Z,99849.06
2023-03-26T09:57:45.200Z,99847.13
2023-03-26T10:00:29.564Z,99849.03
2023-03-26T10:03:27.016Z,99850.56
2023-03-26T10:06:00.622Z,99853.41
2023-03-26T10:08:39.844Z,99854.88
2023-03-26T10:11:13.685Z,99855.03
2023-03-26T10:13:52.432Z,99853.88
2023-03-26T10:16:26.551Z,99844.66
2023-03-26T10:19:04.248Z,99851.88
2023-03-26T10:21:41.378Z,99853.25
2023-03-26T10:24:18.680Z,99843.56
2023-03-26T10:27:09.689Z,99835.16
2023-03-26T10:30:22.936Z,99841.03
2023-03-26T10:32:57.584Z,99845.41
2023-03-26T10:35:34.925Z,99847.56
2023-03-26T10:38:14.462Z,99839.13
2023-03-26T10:40:49.096Z,99840.59
2023-03-26T10:44:01.295Z,99846.78
2023-03-26T10:47:02.794Z,99850.59
2023-03-26T10:50:04.963Z,99847.25
2023-03-26T10:52:36.153Z,99841.09
2023-03-26T10:55:12.629Z,99839.06
2023-03-26T10:57:42.490Z,99845.75
2023-03-26T11:00:24.919Z,99836.59
2023-03-26T11:03:16.037Z,99842.31
2023-03-26T11:05:48.910Z,99834.38
2023-03-26T11:08:31.158Z,99835.34
2023-03-26T11:11:05.914Z,99835.72
2023-03-26T11:13:45.468Z,99834.09
2023-03-26T11:16:19.636Z,99836.41
2023-03-26T11:18:52.861Z,99830.47
2023-03-26T11:21:26.215Z,99828.28
2023-03-26T11:24:04.514Z,99825.75
2023-03-26T11:26:39.629Z,99823.78
2023-03-26T11:29:32.690Z,99824.75
2023-03-26T11:32:06.380Z,99813.16
2023-03-26T11:34:38.272Z,99808.59
2023-03-26T11:37:09.119Z,99818.03
2023-03-26T11:39:44.003Z,99815.03
2023-03-26T11:42:14.985Z,99812.59
2023-03-26T11:44:48.201Z,99808.94
2023-03-26T11:47:23.188Z,99808.78
2023-03-26T11:49:52.887Z,99813.88
2023-03-26T11:52:21.621Z,99811.00
2023-03-26T11:54:50.606Z,99801.56
2023-03-26T11:57:22.189Z,99802.88
2023-03-26T11:59:57.542Z,99791.41
2023-03-26T12:02:32.578Z,99801.03
2023-03-26T12:05:16.329Z,99796.78
2023-03-26T12:07:48.264Z,99799.50
2023-03-26T12:10:28.905Z,99790.25
2023-03-26T12:12:59.774Z,99787.53
2023-03-26T12:15:28.786Z,99789.88
2023-03-26T12:17:59.622Z,99776.28
2023-03-26T12:20:38.570Z,99777.41
2023-03-26T12:23:08.168Z,99769.66
2023-03-26T12:25:37.443Z,99768.97
2023-03-26T12:28:13.074Z,99756.84
2023-03-26T12:30:42.244Z,99763.31
2023-03-26T12:33:18.158Z,99757.22
2023-03-26T12:35:46.353Z,99757.78
2023-03-26T12:38:24.209Z,99747.09
2023-03-26T12:41:07.862Z,99750.75
2023-03-26T12:44:46.871Z,99740.59
2023-03-26T12:47:56.195Z,99741.16
2023-03-26T12:49:21.362Z,99738.41
2023-03-26T12:51:51.755Z,99746.16
2023-03-26T12:54:35.886Z,99743.06
2023-03-26T12:57:21.068Z,99739.41
2023-03-26T12:59:57.773Z,99752.91
2023-03-26T13:02:41.954Z,99742.50
2023-03-26T13:05:21.191Z,99751.78
2023-03-26T13:08:05.243Z,99743.94
2023-03-26T13:10:51.710Z,99746.38
2023-03-26T13:13:36.160Z,99733.78
2023-03-26T13:16:11.138Z,99730.22
2023-03-26T13:18:45.425Z,99735.00
2023-03-26T13:21:19.597Z,99737.97
2023-03-26T13:23:52.221Z,99737.91
2023-03-26T13:26:33.945Z,99735.28
2023-03-26T13:29:07.928Z,99731.13
2023-03-26T13:31:40.644Z,99719.53
2023-03-26T13:34:14.891Z,99724.09
2023-03-26T13:36:49.659Z,99723.25
2023-03-26T13:39:27.399Z,99723.66
2023-03-26T13:42:14.512Z,99724.78
2023-03-26T13:44:51.186Z,99722.13
2023-03-26T13:47:21.061Z,99716.78
2023-03-26T13:49:52.773Z,99713.31
2023-03-26T13:52:24.180Z,99720.94
2023-03-26T13:54:56.473Z,99720.09
2023-03-26T13:57:29.363Z,99720.25
2023-03-26T13:59:59.550Z,99711.09
2023-03-26T14:02:34.203Z,99722.94
2023-03-26T14:05:05.736Z,99721.75
2023-03-26T14:07:40.212Z,99723.13
2023-03-26T14:10:11.430Z,99732.25
2023-03-26T14:12:49.003Z,99718.81
2023-03-26T14:15:23.159Z,99722.22
2023-03-26T14:17:54.523Z,99712.09
2023-03-26T14:20:57.443Z,99717.19
2023-03-26T14:23:50.698Z,99719.03
2023-03-26T14:26:26.682Z,99719.13
2023-03-26T14:29:18.684Z,99716.72
2023-03-26T14:31:53.889Z,99707.50
2023-03-26T14:34:34.379Z,99701.41
2023-03-26T14:37:28.138Z,99702.03
2023-03-26T14:40:17.079Z,99704.41
2023-03-26T14:42:56.487Z,99711.94
2023-03-26T14:45:39.130Z,99711.19
2023-03-26T14:48:27.844Z,99707.78
2023-03-26T14:51:08.872Z,99709.72
2023-03-26T14:53:40.050Z,99702.41
2023-03-26T14:56:42.241Z,99702.13
2023-03-26T14:59:36.386Z,99698.44
2023-03-26T15:02:37.415Z,99696.50
2023-03-26T15:05:56.215Z,99696.97
2023-03-26T15:08:49.080Z,99698.25
2023-03-26T15:11:25.924Z,99697.59
2023-03-26T15:14:03.244Z,99687.88
2023-03-26T15:16:59.316Z,99684.31
2023-03-26T15:20:02.958Z,99689.34
2023-03-26T15:23:09.843Z,99686.44
2023-03-26T15:26:18.642Z,99681.66
2023-03-26T15:29:08.411Z,99691.28
2023-03-26T15:32:13.490Z,99683.75
2023-03-26T15:34:57.839Z,99681.84
2023-03-26T15:38:04.111Z,99685.84
2023-03-26T15:41:01.656Z,99686.78
2023-03-26T15:43:39.599Z,99687.84
2023-03-26T15:46:27.071Z,99688.03
2023-03-26T15:49:00.690Z,99684.94
2023-03-26T15:51:47.514Z,99692.19
2023-03-26T15:54:23.808Z,99691.91
2023-03-26T15:57:10.288Z,99684.84
2023-03-26T15:59:43.290Z,99690.03
2023-03-26T16:02:26.147Z,99689.41
2023-03-26T16:04:55.584Z,99691.00
2023-03-26T16:07:41.519Z,99686.94
2023-03-26T16:10:29.272Z,99691.81
2023-03-26T16:13:24.469Z,99687.94
2023-03-26T16:15:55.959Z,99693.66
2023-03-26T16:18:32.135Z,99679.22
2023-03-26T16:21:06.818Z,99683.03
2023-03-26T16:23:47.616Z,99695.47
2023-03-26T16:26:18.268Z,99699.38
2023-03-26T16:29:22.188Z,99702.28
2023-03-26T16:32:07.040Z,99704.50
2023-03-26T16:34:42.552Z,99704.59
2023-03-26T16:37:37.089Z,99701.97
2023-03-26T16:40:41.829Z,99714.44
2023-03-26T16:43:42.150Z,99715.34
2023-03-26T16:46:18.056Z,99714.41
2023-03-26T16:48:51.585Z,99715.25
2023-03-26T16:51:27.067Z,99719.44
2023-03-26T16:54:00.869Z,99719.13
2023-03-26T16:56:34.622Z,99718.16
2023-03-26T16:59:09.217Z,99724.69
2023-03-26T17:01:43.085Z,99723.56
2023-03-26T17:04:17.144Z,99721.09
2023-03-26T17:07:13.846Z,99721.44
2023-03-26T17:09:52.575Z,99720.78
2023-03-26T17:12:28.087Z,99713.00
2023-03-26T17:15:18.156Z,99715.34
2023-03-26T17:17:53.852Z,99724.31
2023-03-26T17:20:32.996Z,99721.00
2023-03-26T17:23:15.132Z,99723.19
2023-03-26T17:25:53.696Z,99728.00
2023-03-26T17:28:56.124Z,99725.53
2023-03-26T17:31:33.592Z,99733.47
2023-03-26T17:34:35.369Z,99741.13
2023-03-26T17:37:05.283Z,99741.94
2023-03-26T17:40:12.329Z,99746.59
2023-03-26T17:43:01.551Z,99752.56
2023-03-26T17:45:31.932Z,99750.25
2023-03-26T17:48:03.141Z,99749.56
2023-03-26T17:50:33.269Z,99752.38
2023-03-26T17:53:03.165Z,99754.38
2023-03-26T17:55:32.599Z,99758.00
2023-03-26T17:58:04.790Z,99759.50
2023-03-26T18:00:34.610Z,99761.50
2023-03-26T18:03:05.744Z,99764.00
2023-03-26T18:05:34.422Z,99764.34
2023-03-26T18:08:25.258Z,99760.84
2023-03-26T18:11:32.723Z,99764.34
2023-03-26T18:14:28.655Z,99761.69
2023-03-26T18:16:58.584Z,99765.16
2023-03-26T18:19:27.466Z,99770.13
2023-03-26T18:21:58.323Z,99769.63
2023-03-26T18:24:28.573Z,99774.44
2023-03-26T18:26:58.429Z,99773.78
2023-03-26T18:29:28.985Z,99777.41
2023-03-26T18:32:00.279Z,99767.16
2023-03-26T18:34:31.496Z,99768.81
2023-03-26T18:37:15.168Z,99774.44
2023-03-26T18:39:44.708Z,99778.06
2023-03-26T18:42:22.648Z,99782.69
2023-03-26T18:45:00.295Z,99776.75
2023-03-26T18:47:30.629Z,99787.84
2023-03-26T18:49:59.335Z,99782.53
2023-03-26T18:52:29.305Z,99786.69
2023-03-26T18:54:59.071Z,99787.19
2023-03-26T18:57:29.008Z,99789.50
2023-03-26T19:00:10.236Z,99793.28
2023-03-26T19:02:39.545Z,99789.31
2023-03-26T19:05:09.300Z,99784.97
2023-03-26T19:07:37.873Z,99786.59
2023-03-26T19:10:06.585Z,99787.59
2023-03-26T19:12:36.540Z,99786.91
2023-03-26T19:15:10.555Z,99789.72
2023-03-26T19:17:44.477Z,99785.84
2023-03-26T19:20:16.749Z,99792.94
2023-03-26T19:22:45.431Z,99793.09
2023-03-26T19:25:21.500Z,99789.56
2023-03-26T19:27:50.464Z,99794.03
2023-03-26T19:30:29.118Z,99784.75
2023-03-26T19:33:12.280Z,99796.81
2023-03-26T19:35:43.252Z,99790.00
2023-03-26T19:38:24.650Z,99796.44
2023-03-26T19:40:54.551Z,99795.63
2023-03-26T19:43:23.357Z,99796.59
2023-03-26T19:45:59.800Z,99797.94
2023-03-26T19:48:45.426Z,99801.41
2023-03-26T19:51:20.318Z,99802.53
2023-03-26T19:53:54.101Z,99815.94
2023-03-26T19:56:22.897Z,99807.31
2023-03-26T19:58:51.164Z,99811.63
2023-03-26T20:01:22.017Z,99810.78
2023-03-26T20:03:51.444Z,99817.38
2023-03-26T20:06:30.782Z,99820.84
2023-03-26T20:09:06.294Z,99821.81
2023-03-26T20:11:38.437Z,99819.50
2023-03-26T20:14:12.756Z,99828.59
2023-03-26T20:16:44.401Z,99838.19
2023-03-26T20:19:13.065Z,99833.03
2023-03-26T20:21:41.284Z,99834.81
2023-03-26T20:24:12.576Z,99848.50
2023-03-26T20:26:40.483Z,99849.44
2023-03-26T20:29:08.329Z,99851.00
2023-03-26T20:31:37.329Z,99855.19
2023-03-26T20:34:12.313Z,99853.81
2023-03-26T20:36:40.721Z,99861.84
2023-03-26T20:39:09.538Z,99866.06
2023-03-26T20:41:41.183Z,99865.22
2023-03-26T20:44:13.527Z,99866.22
2023-03-26T20:46:41.470Z,99868.28
2023-03-26T20:49:11.493Z,99868.47
2023-03-26T20:51:41.697Z,99870.00
2023-03-26T20:54:14.704Z,99872.00
2023-03-26T20:56:43.123Z,99870.44
2023-03-26T20:59:11.827Z,99872.00
2023-03-26T21:01:39.868Z,99876.53
2023-03-26T21:04:08.002Z,99870.59
2023-03-26T21:06:37.680Z,99875.03
2023-03-26T21:09:06.199Z,99871.72
2023-03-26T21:11:43.003Z,99878.66
2023-03-26T21:14:16.883Z,99884.63
2023-03-26T21:16:45.235Z,99884.22
2023-03-26T21:19:13.792Z,99902.84
2023-03-26T21:21:53.035Z,99891.47
2023-03-26T21:24:29.497Z,99893.72
2023-03-26T21:27:00.914Z,99893.72
2023-03-26T21:29:29.200Z,99904.50
2023-03-26T21:31:57.598Z,99894.25
2023-03-26T21:34:27.692Z,99899.75
2023-03-26T21:36:57.536Z,99897.94
2023-03-26T21:39:25.807Z,99899.44
2023-03-26T21:42:04.822Z,99901.00
2023-03-26T21:44:34.545Z,99899.19
2023-03-26T21:47:02.834Z,99896.84
2023-03-26T21:49:31.394Z,99901.06
2023-03-26T21:52:01.263Z,99904.56
2023-03-26T21:54:31.517Z,99908.91
2023-03-26T21:57:07.620Z,99907.66
2023-03-26T21:59:41.206Z,99905.47
2023-03-26T22:02:13.197Z,99916.03
2023-03-26T22:04:46.372Z,99905.38
2023-03-26T22:07:18.666Z,99914.78
2023-03-26T22:09:46.998Z,99920.47
2023-03-26T22:12:14.810Z,99921.44
2023-03-26T22:14:42.762Z,99921.72
2023-03-26T22:17:10.842Z,99926.88
2023-03-26T22:19:38.682Z,99928.16
2023-03-26T22:22:06.681Z,99928.97
2023-03-26T22:24:35.889Z,99934.81
2023-03-26T22:27:03.749Z,99931.75
2023-03-26T22:29:31.596Z,99933.84
2023-03-26T22:31:59.433Z,99925.41
2023-03-26T22:34:27.352Z,99929.56
2023-03-26T22:36:55.197Z,99931.09
2023-03-26T22:39:23.347Z,99932.59
2023-03-26T22:41:52.537Z,99937.88
2023-03-26T22:44:20.745Z,99938.16
2023-03-26T22:46:51.072Z,99941.78
2023-03-26T22:49:19.499Z,99940.41
2023-03-26T22:51:47.374Z,99943.72
2023-03-26T22:54:15.551Z,99941.38
2023-03-26T22:56:43.884Z,99943.03
2023-03-26T22:59:13.156Z,99946.78
2023-03-26T23:01:41.406Z,99946.78
2023-03-26T23:04:09.388Z,99940.22
2023-03-26T23:06:37.335Z,99953.31
2023-03-26T23:09:07.008Z,99958.97
2023-03-26T23:11:34.897Z,99955.34
2023-03-26T23:14:02.801Z,99961.91
2023-03-26T23:16:32.677Z,99956.03
2023-03-26T23:19:00.617Z,99961.75
2023-03-26T23:21:28.483Z,99965.06
2023-03-26T23:23:56.460Z,99975.88
2023-03-26T23:26:24.405Z,99982.81
2023-03-26T23:28:52.606Z,99990.03
2023-03-26T23:31:20.543Z,99987.91
2023-03-26T23:33:50.318Z,99982.88
2023-03-26T23:36:19.571Z,99990.78
2023-03-26T23:38:48.222Z,99996.06
2023-03-26T23:41:17.163Z,100002.16
2023-03-26T23:43:53.314Z,100003.94
2023-03-26T23:46:23.695Z,100006.16
2023-03-26T23:48:53.444Z,100010.13
2023-03-26T23:51:22.407Z,100014.28
2023-03-26T23:53:50.373Z,100022.31
2023-03-26T23:56:19.022Z,100026.53
2023-03-26T23:58:47.641Z,100040.28
